Historique des mesures à Cassis (13260), France
Quotidien Résumé Janvier 26, 2018 Unités:  US    Métrique   Métrique/US
« Précédent (Jour)
Suivant (Jour) »
Quotidien Hebdomadaire Mensuel Annuel Période au choix
  Maximum: Minimum: Moyenne:
Température: 32 °F 52.3 °F 53.2 °F
Point de rosée: 32 °F 46.8 °F 47.7 °F
Humidité: Humidity % 71 % 77 %
Vitesse du vent: WindSpeedKMH mph 0.0 mph 6.9 mph
Rafales: WindSpeedGustKMH mph - -
Vent:- - ESE
Pression: 0 in 29.8 in -
Précipitations: 11.9 in    
Historical Graphs
 
 
Mesures pour : Janvier 26, 2018
Heure Temperature Point de rosée Pression Vent Vitesse du vent Rafales Humidité Pluie (par heure)
32 °F 32 °F 0 in Calm     Humidity % HourlyPrecipMM in
00:12 55.9 °F 49.1 °F 30 in Calm   8.7 mph 78 % 0.0 in
01:12 56.1 °F 49.3 °F 29.9 in Calm   10.1 mph 78 % 0.0 in
02:12 55.9 °F 48 °F 29.9 in SE 9.0 mph 13.0 mph 75 % 0.0 in
03:12 56.1 °F 46.8 °F 29.9 in SE 12.2 mph 12.2 mph 71 % 0.0 in
04:12 56.1 °F 47.1 °F 29.9 in ESE 4.3 mph 5.0 mph 72 % 0.0 in
05:12 55.9 °F 46.9 °F 29.9 in ESE 20.9 mph 20.9 mph 72 % 0.0 in
06:12 55 °F 47.1 °F 29.9 in ENE 11.1 mph 12.2 mph 75 % 0.0 in
07:12 55.2 °F 47.5 °F 29.8 in SE 9.3 mph 9.3 mph 75 % 0.0 in
08:12 54 °F 48 °F 29.8 in ESE 5.5 mph 5.5 mph 80 % 0.5 in
09:12 53.8 °F 47.8 °F 29.8 in ESE 5.8 mph 9.0 mph 80 % 0.5 in
10:12 53.8 °F 48.7 °F 29.9 in SE 5.8 mph 5.8 mph 83 % 0.0 in
11:12 53.4 °F 48.7 °F 29.9 in ESE 7.9 mph 7.9 mph 84 % 0.5 in
12:12 53.2 °F 48.2 °F 29.9 in ESE 8.7 mph 9.3 mph 83 % 0.5 in
13:12 53.2 °F 48.2 °F 29.8 in Calm   5.8 mph 83 % 0.0 in
14:12 53.4 °F 48.7 °F 29.8 in Calm   6.4 mph 84 % 0.0 in
15:12 53.2 °F 48.6 °F 29.8 in SE 8.7 mph 8.7 mph 84 % 0.5 in
16:12 52.9 °F 47.8 °F 29.8 in ESE 12.6 mph 12.6 mph 83 % 0.5 in
17:12 53.8 °F 47.5 °F 29.8 in NNE 1.8 mph 7.6 mph 79 % 0.0 in
18:12 52.5 °F 47.8 °F 29.9 in SE 3.5 mph 4.7 mph 84 % 2.0 in
19:12 52.3 °F 48.2 °F 29.9 in Calm   4.7 mph 86 % 2.5 in
20:12 52.3 °F 48.2 °F 29.9 in ESE 5.8 mph 14.8 mph 86 % 0.5 in
21:12 53.4 °F 49.6 °F 29.9 in SE 21.6 mph 21.6 mph 87 % 0.0 in
22:12 54.5 °F 50.7 °F 29.9 in SE 10.5 mph 14.8 mph 87 % 0.0 in
23:12 54.3 °F 50.5 °F 29.9 in SE 6.4 mph 6.4 mph 87 % 0.0 in
Observations météo à CASSIS
WU-History script by Weather Underground - 1 mb